Time;durP1;ratioP1;P1;durP2;ratioP2;P2;SDS_P1;SDS_P2;PMS_P1;PMS_P2;Temp;Humidity;BMP_temperature;BMP_pressure;BME280_temperature;BME280_humidity;BME280_pressure;Samples;Min_cycle;Max_cycle;Signal;HPM_P1;HPM_P2
2021/08/02 04:58:17;;;;;;;;;;;;;;;28.06;62.99;99281.96;1838583;77;20304;-64
2021/08/02 05:00:44;;;;;;;;;;;;;;;28.32;62.37;99278.30;1796632;78;20446;-63
2021/08/02 05:03:11;;;;;;;;;;;;;;;28.65;61.39;99266.45;1796431;80;21141;-64
2021/08/02 05:05:38;;;;;;;;;;;;;;;29.03;60.13;99275.13;1796352;80;20359;-64
2021/08/02 05:08:06;;;;;;;;;;;;;;;29.35;59.64;99277.63;1816153;78;20382;-66
2021/08/02 05:10:33;;;;;;;;;;;;;;;29.77;58.57;99282.02;1832208;78;20111;-68
2021/08/02 05:13:00;;;;;;;;;;;;;;;30.14;57.35;99281.91;1832389;77;20092;-68
2021/08/02 05:15:27;;;;;;;;;;;;;;;30.49;56.33;99281.41;1800733;78;22060;-67
2021/08/02 05:17:54;;;;;;;;;;;;;;;30.78;55.57;99281.03;1796161;78;20086;-67
2021/08/02 05:20:21;;;;;;;;;;;;;;;31.04;54.60;99275.66;1791364;79;20102;-71
2021/08/02 05:22:50;;;;;;;;;;;;;;;31.27;54.17;99269.41;1791281;80;20129;-69
2021/08/02 05:25:22;;;;;;;;;;;;;;;31.52;53.41;99266.41;1790160;80;20113;-69
2021/08/02 05:27:51;;;;;;;;;;;;;;;31.74;52.68;99262.52;1796813;78;21274;-69
2021/08/02 05:30:21;;;;;;;;;;;;;;;31.98;51.91;99258.64;1790389;80;20125;-67
2021/08/02 05:32:48;;;;;;;;;;;;;;;32.19;51.49;99253.03;1794800;80;20422;-67
2021/08/02 05:35:15;;;;;;;;;;;;;;;32.44;50.89;99245.89;1772466;80;20090;-66
2021/08/02 05:37:41;;;;;;;;;;;;;;;32.74;49.95;99242.28;1795372;79;20149;-67
2021/08/02 05:40:08;;;;;;;;;;;;;;;32.85;49.35;99221.67;1796437;80;21101;-67
2021/08/02 05:42:35;;;;;;;;;;;;;;;32.79;49.11;99223.48;1794659;80;20534;-69
2021/08/02 05:45:04;;;;;;;;;;;;;;;32.63;49.30;99225.69;1799030;78;20079;-66
2021/08/02 05:47:31;;;;;;;;;;;;;;;32.52;50.19;99227.95;1832083;78;20099;-67
2021/08/02 05:49:57;;;;;;;;;;;;;;;32.44;50.23;99232.41;1832135;78;20149;-66
2021/08/02 05:52:26;;;;;;;;;;;;;;;32.23;50.85;99229.97;1808190;78;20322;-68
2021/08/02 05:54:53;;;;;;;;;;;;;;;31.94;51.02;99231.09;1795941;80;20114;-68
2021/08/02 05:57:21;;;;;;;;;;;;;;;31.53;52.06;99226.33;1788239;80;20162;-67
2021/08/02 05:59:49;;;;;;;;;;;;;;;31.19;52.86;99230.00;1764009;80;20145;-68
2021/08/02 06:02:16;;;;;;;;;;;;;;;30.80;53.74;99222.97;1782580;78;20111;-67
2021/08/02 06:04:48;;;;;;;;;;;;;;;30.48;54.77;99213.12;1783111;80;20452;-72
2021/08/02 06:07:15;;;;;;;;;;;;;;;30.25;55.56;99215.83;1778837;80;20440;-68
2021/08/02 06:09:43;;;;;;;;;;;;;;;30.09;56.15;99212.78;1784812;80;20131;-67
2021/08/02 06:12:10;;;;;;;;;;;;;;;30.08;56.78;99217.04;1801964;78;20192;-68
2021/08/02 06:14:39;;;;;;;;;;;;;;;30.14;56.54;99208.06;1816785;79;20141;-68
2021/08/02 06:17:07;;;;;;;;;;;;;;;30.18;56.65;99203.86;1784552;79;21201;-67
2021/08/02 06:19:34;;;;;;;;;;;;;;;30.21;56.81;99203.92;1774920;79;20090;-70
2021/08/02 06:22:01;;;;;;;;;;;;;;;30.23;56.86;99201.30;1781879;78;20121;-68
2021/08/02 06:24:29;;;;;;;;;;;;;;;30.17;56.55;99188.27;1797268;78;20241;-69
2021/08/02 06:26:56;;;;;;;;;;;;;;;30.06;56.80;99186.39;1777005;80;20110;-70
2021/08/02 06:29:23;;;;;;;;;;;;;;;29.94;57.05;99184.73;1781101;78;21069;-69
2021/08/02 06:31:53;;;;;;;;;;;;;;;29.78;57.32;99174.97;1781854;80;20121;-72
2021/08/02 06:34:24;;;;;;;;;;;;;;;29.62;57.86;99170.78;1781016;80;20169;-71
2021/08/02 06:36:52;;;;;;;;;;;;;;;29.45;58.33;99172.81;1782939;79;20130;-68
2021/08/02 06:39:19;;;;;;;;;;;;;;;29.28;58.50;99161.58;1788213;78;20952;-70
2021/08/02 06:41:46;;;;;;;;;;;;;;;29.03;59.33;99167.09;1788371;78;21040;-72
2021/08/02 06:44:13;;;;;;;;;;;;;;;28.90;59.87;99181.99;1779813;79;20184;-67
2021/08/02 06:46:40;;;;;;;;;;;;;;;28.76;60.27;99178.64;1776554;80;20118;-68
2021/08/02 06:49:08;;;;;;;;;;;;;;;28.70;60.88;99170.16;1786794;78;20185;-68
2021/08/02 06:51:37;;;;;;;;;;;;;;;28.71;61.27;99164.58;1790462;78;20122;-70
2021/08/02 06:54:04;;;;;;;;;;;;;;;28.78;61.51;99173.88;1784729;80;21033;-67
2021/08/02 06:56:32;;;;;;;;;;;;;;;28.86;61.32;99160.19;1797926;78;20090;-75
2021/08/02 06:58:59;;;;;;;;;;;;;;;28.96;60.90;99155.11;1809968;78;20148;-71
2021/08/02 07:01:29;;;;;;;;;;;;;;;29.09;60.69;99150.92;1808305;78;20153;-68
2021/08/02 07:03:58;;;;;;;;;;;;;;;29.33;60.16;99161.19;1796464;79;20137;-70
2021/08/02 07:06:25;;;;;;;;;;;;;;;29.53;59.61;99170.33;1778724;80;21060;-69
2021/08/02 07:08:57;;;;;;;;;;;;;;;29.63;58.64;99170.56;1795950;80;20405;-69
2021/08/02 07:11:23;;;;;;;;;;;;;;;29.59;58.28;99159.98;1779844;80;20118;-65
2021/08/02 07:13:50;;;;;;;;;;;;;;;29.51;58.48;99171.08;1795796;80;20109;-63
2021/08/02 07:16:17;;;;;;;;;;;;;;;29.37;58.50;99149.48;1808351;78;20196;-67
2021/08/02 07:18:44;;;;;;;;;;;;;;;29.19;58.71;99133.73;1818447;78;21140;-69
2021/08/02 07:21:13;;;;;;;;;;;;;;;28.99;58.87;99114.45;1805204;78;20086;-71
2021/08/02 07:23:43;;;;;;;;;;;;;;;28.80;59.28;99099.42;1785046;78;20384;-70
2021/08/02 07:26:09;;;;;;;;;;;;;;;28.63;60.26;99106.46;1806821;78;20448;-70
2021/08/02 07:28:38;;;;;;;;;;;;;;;28.49;60.98;99117.33;1812548;78;20106;-69
2021/08/02 07:31:05;;;;;;;;;;;;;;;28.39;61.23;99108.99;1803926;78;21066;-71
2021/08/02 07:33:31;;;;;;;;;;;;;;;28.37;61.41;99118.32;1796225;78;20074;-67
2021/08/02 07:36:02;;;;;;;;;;;;;;;28.37;61.06;99118.32;1793178;80;20090;-69
2021/08/02 07:38:30;;;;;;;;;;;;;;;28.41;60.98;99114.95;1795529;79;20114;-65
2021/08/02 07:40:58;;;;;;;;;;;;;;;28.54;60.95;99109.44;1794271;78;20214;-66
2021/08/02 07:43:26;;;;;;;;;;;;;;;28.83;60.72;99117.75;1792194;78;21015;-65
2021/08/02 07:45:54;;;;;;;;;;;;;;;29.27;59.71;99125.90;1796028;80;20082;-65
2021/08/02 07:48:21;;;;;;;;;;;;;;;29.81;58.09;99121.36;1792775;80;20093;-71
2021/08/02 07:50:49;;;;;;;;;;;;;;;30.23;56.24;99127.44;1792500;80;20498;-71
2021/08/02 07:53:15;;;;;;;;;;;;;;;30.44;55.49;99124.12;1794633;78;20094;-70
2021/08/02 07:55:49;;;;;;;;;;;;;;;30.66;54.86;99127.03;1789652;80;20106;-71
2021/08/02 07:58:17;;;;;;;;;;;;;;;30.96;53.83;99124.63;1765106;80;20161;-72
2021/08/02 08:00:47;;;;;;;;;;;;;;;31.08;53.15;99120.03;1783822;80;20079;-69
2021/08/02 08:03:13;;;;;;;;;;;;;;;31.12;53.52;99124.72;1789351;78;20078;-70
2021/08/02 08:05:44;;;;;;;;;;;;;;;31.20;52.74;99119.45;1799462;79;20086;-71
2021/08/02 08:08:14;;;;;;;;;;;;;;;31.30;52.53;99122.33;1791010;80;21611;-70
2021/08/02 08:10:46;;;;;;;;;;;;;;;31.62;52.10;99119.89;1790391;80;20413;-67
2021/08/02 08:13:14;;;;;;;;;;;;;;;32.16;51.09;99116.15;1808022;78;20132;-69
2021/08/02 08:15:42;;;;;;;;;;;;;;;32.68;49.61;99119.27;1804838;79;20114;-69
2021/08/02 08:18:11;;;;;;;;;;;;;;;33.19;48.65;99116.33;1784150;78;20106;-71
2021/08/02 08:20:37;;;;;;;;;;;;;;;33.63;47.75;99115.09;1784436;80;21135;-69
2021/08/02 08:23:06;;;;;;;;;;;;;;;33.96;46.15;99115.91;1789651;78;21292;-71
2021/08/02 08:25:36;;;;;;;;;;;;;;;34.08;44.92;99123.25;1786681;80;20105;-70
2021/08/02 08:28:04;;;;;;;;;;;;;;;34.05;44.97;99116.48;1785457;78;20111;-69
2021/08/02 08:30:31;;;;;;;;;;;;;;;33.94;44.33;99114.81;1790499;80;20066;-70
2021/08/02 08:33:02;;;;;;;;;;;;;;;33.75;44.56;99111.67;1801210;78;20076;-70
2021/08/02 08:35:30;;;;;;;;;;;;;;;33.71;44.74;99111.91;1825684;78;20107;-70
2021/08/02 08:37:57;;;;;;;;;;;;;;;33.80;45.01;99119.03;1780089;78;20139;-73
2021/08/02 08:40:26;;;;;;;;;;;;;;;33.98;44.73;99124.56;1773122;80;20090;-72
2021/08/02 08:42:54;;;;;;;;;;;;;;;34.16;44.02;99126.00;1801420;79;20148;-69
2021/08/02 08:45:21;;;;;;;;;;;;;;;34.30;43.56;99122.61;1793842;79;20630;-68
2021/08/02 08:47:51;;;;;;;;;;;;;;;34.35;43.28;99125.34;1774709;78;20086;-71
2021/08/02 08:50:19;;;;;;;;;;;;;;;34.35;43.25;99132.63;1790690;80;20195;-71
2021/08/02 08:52:46;;;;;;;;;;;;;;;34.34;43.51;99139.11;1791212;78;20157;-72
2021/08/02 08:55:15;;;;;;;;;;;;;;;34.37;43.04;99123.73;1778378;79;20434;-71
2021/08/02 08:57:43;;;;;;;;;;;;;;;34.39;42.92;99122.92;1780953;78;21151;-70
2021/08/02 09:00:23;;;;;;;;;;;;;;;34.39;43.56;99121.00;1782569;80;20131;-70
2021/08/02 09:02:51;;;;;;;;;;;;;;;34.53;43.31;99121.88;1788232;78;20094;-72
2021/08/02 09:05:21;;;;;;;;;;;;;;;34.55;42.73;99111.61;1791595;80;20184;-67
2021/08/02 09:07:48;;;;;;;;;;;;;;;34.49;41.71;99120.24;1770798;80;20122;-72
2021/08/02 09:10:22;;;;;;;;;;;;;;;34.35;41.67;99108.30;1792942;78;21184;-72
2021/08/02 09:12:53;;;;;;;;;;;;;;;34.24;42.05;99108.76;1771395;80;20105;-73
2021/08/02 09:15:34;;;;;;;;;;;;;;;34.13;42.14;99116.53;1795882;79;20118;-66
2021/08/02 09:18:03;;;;;;;;;;;;;;;34.00;41.88;99115.09;1795104;79;20101;-67
2021/08/02 09:20:30;;;;;;;;;;;;;;;33.87;42.07;99110.17;1795629;78;20094;-66
2021/08/02 09:23:06;;;;;;;;;;;;;;;33.74;42.05;99107.34;1793840;80;21296;-67
2021/08/02 09:25:33;;;;;;;;;;;;;;;33.62;42.74;99113.99;1794840;79;20165;-67
2021/08/02 09:28:13;;;;;;;;;;;;;;;33.53;42.87;99123.66;1799598;79;20097;-73
2021/08/02 09:30:40;;;;;;;;;;;;;;;33.41;43.01;99113.03;1796297;78;20098;-68
2021/08/02 09:33:09;;;;;;;;;;;;;;;33.35;43.45;99125.66;1746061;81;20129;-70
2021/08/02 09:35:40;;;;;;;;;;;;;;;33.30;44.29;99112.13;1720829;82;20394;-67
2021/08/02 09:38:10;;;;;;;;;;;;;;;33.36;44.46;99111.10;1760642;81;20534;-68
2021/08/02 09:40:46;;;;;;;;;;;;;;;33.37;44.25;99112.73;1746022;81;20130;-69
2021/08/02 09:43:17;;;;;;;;;;;;;;;33.33;44.31;99110.27;1745187;82;20384;-70
2021/08/02 09:45:50;;;;;;;;;;;;;;;33.24;44.63;99109.59;1752190;81;20114;-68
2021/08/02 09:48:18;;;;;;;;;;;;;;;33.12;45.38;99110.59;1749655;82;20576;-69
2021/08/02 09:50:47;;;;;;;;;;;;;;;33.05;45.10;99105.12;1754842;81;20068;-68
2021/08/02 09:53:19;;;;;;;;;;;;;;;32.98;45.19;99097.77;1740086;80;20098;-70
2021/08/02 09:55:49;;;;;;;;;;;;;;;32.96;44.88;99104.77;1743970;82;20075;-69
2021/08/02 09:58:20;;;;;;;;;;;;;;;32.96;44.84;99106.64;1746570;81;20103;-69
2021/08/02 10:00:49;;;;;;;;;;;;;;;32.93;45.07;99106.62;1750160;81;20178;-67
2021/08/02 10:03:17;;;;;;;;;;;;;;;32.93;45.04;99112.02;1746903;81;20125;-69
2021/08/02 10:05:44;;;;;;;;;;;;;;;32.89;44.62;99104.67;1736715;82;20119;-69
2021/08/02 10:08:13;;;;;;;;;;;;;;;32.81;44.66;99102.71;1736719;82;20402;-70
2021/08/02 10:10:40;;;;;;;;;;;;;;;32.76;45.10;99111.30;1736950;82;20095;-69
2021/08/02 10:13:07;;;;;;;;;;;;;;;32.73;45.41;99113.94;1737001;82;21103;-68
2021/08/02 10:15:36;;;;;;;;;;;;;;;32.69;44.96;99116.04;1736707;82;20362;-70
2021/08/02 10:18:06;;;;;;;;;;;;;;;32.62;44.76;99121.62;1737061;82;20392;-69
2021/08/02 10:20:36;;;;;;;;;;;;;;;32.63;44.56;99111.66;1738756;81;20399;-68
2021/08/02 10:23:03;;;;;;;;;;;;;;;32.64;44.16;99117.33;1691931;82;20136;-68
2021/08/02 10:25:34;;;;;;;;;;;;;;;32.62;43.78;99116.23;1736746;82;22024;-67
2021/08/02 10:28:11;;;;;;;;;;;;;;;32.59;43.56;99115.91;1736685;81;20088;-69
2021/08/02 10:30:38;;;;;;;;;;;;;;;32.50;43.59;99118.23;1739703;81;20146;-69
2021/08/02 10:33:05;;;;;;;;;;;;;;;32.35;44.36;99120.22;1736711;82;20119;-68
2021/08/02 10:35:36;;;;;;;;;;;;;;;32.22;44.17;99113.02;1736803;82;20084;-67
2021/08/02 10:38:14;;;;;;;;;;;;;;;32.11;44.36;99116.89;1736793;82;21075;-67
2021/08/02 10:40:59;;;;;;;;;;;;;;;32.04;44.43;99111.39;1736626;82;20406;-68
2021/08/02 10:43:32;;;;;;;;;;;;;;;31.97;44.71;99113.47;1737047;82;20119;-68
2021/08/02 10:46:01;;;;;;;;;;;;;;;31.96;45.05;99122.61;1736713;82;20091;-67
2021/08/02 10:48:29;;;;;;;;;;;;;;;31.97;44.66;99118.85;1736714;82;20119;-67
2021/08/02 10:50:56;;;;;;;;;;;;;;;31.99;43.74;99128.28;1737477;81;21123;-68
2021/08/02 10:53:23;;;;;;;;;;;;;;;32.00;42.93;99123.19;1741181;81;20446;-68
2021/08/02 10:55:52;;;;;;;;;;;;;;;32.02;42.88;99123.75;1733047;81;20105;-68
2021/08/02 10:58:34;;;;;;;;;;;;;;;32.02;42.45;99133.18;1743211;80;20109;-68
2021/08/02 11:01:01;;;;;;;;;;;;;;;32.00;42.04;99129.10;1736522;81;20082;-68
2021/08/02 11:03:34;;;;;;;;;;;;;;;31.95;41.61;99131.22;1732014;81;21151;-67
2021/08/02 11:06:16;;;;;;;;;;;;;;;31.94;41.90;99143.58;1751760;81;20116;-69
2021/08/02 11:08:49;;;;;;;;;;;;;;;31.94;41.77;99137.66;1695237;83;20089;-68
2021/08/02 11:11:23;;;;;;;;;;;;;;;31.94;41.70;99141.70;1721840;83;20083;-67
2021/08/02 11:13:55;;;;;;;;;;;;;;;31.94;42.00;99141.70;1732426;81;20098;-68
2021/08/02 11:16:24;;;;;;;;;;;;;;;31.94;42.13;99140.36;1762386;80;20097;-68
2021/08/02 11:18:52;;;;;;;;;;;;;;;31.95;42.02;99143.86;1754826;81;20108;-64
2021/08/02 11:21:20;;;;;;;;;;;;;;;31.97;41.60;99133.13;1762587;81;20077;-66
2021/08/02 11:23:48;;;;;;;;;;;;;;;31.97;41.93;99135.02;1762237;81;20096;-67
2021/08/02 11:26:20;;;;;;;;;;;;;;;31.98;41.82;99140.69;1762418;80;20371;-67
2021/08/02 11:28:48;;;;;;;;;;;;;;;31.93;41.56;99136.56;1759921;81;21118;-72
2021/08/02 11:31:17;;;;;;;;;;;;;;;31.89;41.54;99134.08;1753655;81;20432;-68
2021/08/02 11:33:45;;;;;;;;;;;;;;;31.80;41.45;99132.32;1715689;83;20105;-73
2021/08/02 11:36:16;;;;;;;;;;;;;;;31.67;41.68;99130.77;1703019;84;20085;-72
2021/08/02 11:38:47;;;;;;;;;;;;;;;31.60;42.12;99131.42;1702697;84;20085;-71
2021/08/02 11:41:28;;;;;;;;;;;;;;;31.55;42.57;99132.72;1728672;83;22073;-71
2021/08/02 11:43:57;;;;;;;;;;;;;;;31.54;42.93;99131.61;1743282;81;20080;-70
2021/08/02 11:46:24;;;;;;;;;;;;;;;31.55;43.11;99129.20;1766343;80;20415;-68
2021/08/02 11:48:52;;;;;;;;;;;;;;;31.53;43.54;99121.38;1743441;81;20099;-69
2021/08/02 11:51:20;;;;;;;;;;;;;;;31.54;43.40;99127.05;1731804;81;20095;-69
2021/08/02 11:53:48;;;;;;;;;;;;;;;31.56;43.43;99122.23;1738452;81;21520;-70
2021/08/02 11:56:15;;;;;;;;;;;;;;;31.60;43.20;99111.77;1756266;81;20068;-70
2021/08/02 11:58:45;;;;;;;;;;;;;;;31.65;43.13;99107.28;1763815;80;20083;-66
2021/08/02 12:01:12;;;;;;;;;;;;;;;31.70;43.14;99098.51;1747520;81;20111;-72
2021/08/02 12:03:41;;;;;;;;;;;;;;;31.70;42.80;99097.98;1745686;81;20126;-70
2021/08/02 12:06:08;;;;;;;;;;;;;;;31.69;42.69;99101.73;1744015;81;20487;-72
2021/08/02 12:08:36;;;;;;;;;;;;;;;31.69;42.54;99095.53;1740428;82;20117;-72
2021/08/02 12:11:05;;;;;;;;;;;;;;;31.69;42.60;99090.97;1739253;81;20106;-73
2021/08/02 12:13:43;;;;;;;;;;;;;;;31.68;42.51;99090.68;1737717;81;20115;-70
2021/08/02 12:16:12;;;;;;;;;;;;;;;31.66;42.94;99075.27;1745228;82;20422;-69
2021/08/02 12:18:40;;;;;;;;;;;;;;;31.65;43.48;99069.61;1736668;81;21926;-70
2021/08/02 12:21:22;;;;;;;;;;;;;;;31.64;43.66;99066.62;1746921;81;20117;-72
2021/08/02 12:23:46;;;;;;;;;;;;;;;31.62;42.79;99054.48;1742368;82;20115;-74
2021/08/02 12:26:15;;;;;;;;;;;;;;;31.60;42.48;99057.41;1743543;82;20354;-68
2021/08/02 12:28:43;;;;;;;;;;;;;;;31.56;42.56;99065.72;1744515;81;20396;-71
2021/08/02 12:31:15;;;;;;;;;;;;;;;31.54;42.40;99051.70;1743020;82;21522;-66
2021/08/02 12:33:42;;;;;;;;;;;;;;;31.57;42.46;99057.94;1743143;81;20095;-73
2021/08/02 12:36:09;;;;;;;;;;;;;;;31.59;42.91;99049.62;1741127;81;20106;-71
2021/08/02 12:38:46;;;;;;;;;;;;;;;31.63;43.04;99039.43;1770563;80;20132;-70
2021/08/02 12:41:13;;;;;;;;;;;;;;;31.66;43.14;99054.27;1769669;80;20217;-70
2021/08/02 12:43:42;;;;;;;;;;;;;;;31.67;42.88;99054.05;1734667;82;21275;-71
2021/08/02 12:46:10;;;;;;;;;;;;;;;31.66;42.90;99050.23;1720355;82;20142;-72
2021/08/02 12:48:37;;;;;;;;;;;;;;;31.68;43.24;99058.38;1749463;80;20111;-72
2021/08/02 12:51:04;;;;;;;;;;;;;;;31.70;43.27;99052.75;1750720;80;20104;-71
2021/08/02 12:53:31;;;;;;;;;;;;;;;31.70;43.38;99059.48;1744521;81;20093;-72
2021/08/02 12:56:00;;;;;;;;;;;;;;;31.69;42.65;99061.36;1741410;82;21051;-73
2021/08/02 12:58:28;;;;;;;;;;;;;;;31.67;42.08;99058.59;1749199;82;20414;-71
2021/08/02 13:00:55;;;;;;;;;;;;;;;31.66;41.99;99057.78;1732805;82;20123;-70
2021/08/02 13:03:22;;;;;;;;;;;;;;;31.68;41.89;99054.34;1730828;81;20205;-71
2021/08/02 13:05:49;;;;;;;;;;;;;;;31.68;41.22;99046.27;1734303;82;20472;-72
2021/08/02 13:08:17;;;;;;;;;;;;;;;31.67;41.59;99041.95;1730340;82;20091;-73
2021/08/02 13:10:48;;;;;;;;;;;;;;;31.64;41.22;99041.06;1732697;82;20238;-71
2021/08/02 13:13:20;;;;;;;;;;;;;;;31.59;40.26;99036.16;1733821;82;20089;-73
2021/08/02 13:15:47;;;;;;;;;;;;;;;31.51;40.70;99046.80;1726300;81;20149;-72
2021/08/02 13:18:14;;;;;;;;;;;;;;;31.48;40.97;99057.53;1733662;81;20434;-71
2021/08/02 13:20:41;;;;;;;;;;;;;;;31.42;40.35;99055.00;1727992;82;21928;-69
2021/08/02 13:23:21;;;;;;;;;;;;;;;31.30;40.46;99060.98;1711144;82;20445;-71
2021/08/02 13:28:22;;;;;;;;;;;;;;;31.13;41.35;99075.25;1717847;83;20072;-74
2021/08/02 13:30:50;;;;;;;;;;;;;;;31.07;41.58;99076.72;1702145;83;20102;-70
2021/08/02 13:33:18;;;;;;;;;;;;;;;31.03;41.85;99079.06;1702135;84;21130;-75
2021/08/02 13:35:45;;;;;;;;;;;;;;;31.03;41.86;99075.03;1702285;84;20090;-76
2021/08/02 13:38:12;;;;;;;;;;;;;;;31.04;41.61;99068.60;1733373;82;20177;-74
2021/08/02 13:40:42;;;;;;;;;;;;;;;31.04;41.97;99075.85;1721991;82;20118;-75
2021/08/02 13:43:09;;;;;;;;;;;;;;;31.02;41.54;99076.09;1733965;82;20195;-72
2021/08/02 13:45:37;;;;;;;;;;;;;;;30.97;41.57;99067.12;1732999;82;21512;-72
2021/08/02 13:48:05;;;;;;;;;;;;;;;30.94;41.57;99072.45;1727281;82;20107;-75
2021/08/02 13:50:34;;;;;;;;;;;;;;;30.90;41.50;99069.95;1723380;83;20430;-72
2021/08/02 13:53:03;;;;;;;;;;;;;;;30.90;42.13;99073.16;1721543;83;20394;-73
2021/08/02 13:55:32;;;;;;;;;;;;;;;30.91;42.36;99072.11;1731393;83;20115;-68
2021/08/02 13:57:59;;;;;;;;;;;;;;;30.92;41.74;99080.47;1730247;82;20567;-74
2021/08/02 14:00:28;;;;;;;;;;;;;;;30.94;40.77;99086.42;1731238;82;20108;-70
2021/08/02 14:02:56;;;;;;;;;;;;;;;30.97;40.60;99088.09;1730215;83;20119;-66
2021/08/02 14:05:23;;;;;;;;;;;;;;;30.99;40.38;99083.30;1730588;83;20087;-69
2021/08/02 14:07:50;;;;;;;;;;;;;;;31.01;39.99;99093.28;1731312;82;20127;-67
2021/08/02 14:10:17;;;;;;;;;;;;;;;31.00;39.91;99094.34;1776513;81;21161;-66
2021/08/02 14:12:46;;;;;;;;;;;;;;;30.99;39.67;99099.95;1745463;82;20445;-68
2021/08/02 14:15:13;;;;;;;;;;;;;;;30.96;39.26;99104.47;1745277;82;20087;-64
2021/08/02 14:17:45;;;;;;;;;;;;;;;30.91;39.33;99113.25;1743609;82;20083;-64
2021/08/02 14:20:13;;;;;;;;;;;;;;;30.87;39.30;99114.79;1745906;82;20107;-64
2021/08/02 14:22:39;;;;;;;;;;;;;;;30.81;39.24;99120.59;1744147;82;21126;-67
2021/08/02 14:25:10;;;;;;;;;;;;;;;30.77;39.35;99113.27;1745753;82;20114;-67
2021/08/02 14:27:37;;;;;;;;;;;;;;;30.74;39.88;99116.44;1743460;82;20135;-67
2021/08/02 14:30:07;;;;;;;;;;;;;;;30.71;40.17;99120.95;1752055;81;20399;-66
2021/08/02 14:32:37;;;;;;;;;;;;;;;30.68;39.88;99112.02;1756227;81;20488;-65
2021/08/02 14:35:05;;;;;;;;;;;;;;;30.63;39.58;99122.13;1717888;83;21140;-64
2021/08/02 14:37:32;;;;;;;;;;;;;;;30.57;39.41;99119.58;1717343;82;20142;-68
2021/08/02 14:39:59;;;;;;;;;;;;;;;30.49;38.90;99121.54;1717712;83;20154;-64
2021/08/02 14:42:30;;;;;;;;;;;;;;;30.40;38.86;99126.98;1718005;82;20095;-65
2021/08/02 14:45:00;;;;;;;;;;;;;;;30.35;38.45;99126.09;1719054;80;20079;-65
2021/08/02 14:47:29;;;;;;;;;;;;;;;30.27;37.66;99117.05;1707257;84;21214;-67
2021/08/02 14:49:59;;;;;;;;;;;;;;;30.19;37.91;99119.03;1716551;83;20159;-67
2021/08/02 14:52:28;;;;;;;;;;;;;;;30.13;38.06;99115.95;1714790;83;20147;-64
2021/08/02 14:54:56;;;;;;;;;;;;;;;30.08;38.35;99121.72;1716513;83;20131;-68
2021/08/02 14:57:23;;;;;;;;;;;;;;;30.02;38.50;99124.81;1716805;83;20118;-65
2021/08/02 14:59:50;;;;;;;;;;;;;;;29.96;38.02;99127.61;1717924;83;21115;-65
2021/08/02 15:02:19;;;;;;;;;;;;;;;29.88;37.99;99133.33;1720085;83;20122;-64
2021/08/02 15:04:46;;;;;;;;;;;;;;;29.82;38.02;99143.94;1720848;83;20115;-65
2021/08/02 15:07:13;;;;;;;;;;;;;;;29.79;38.20;99159.16;1720937;83;20115;-65
2021/08/02 15:09:41;;;;;;;;;;;;;;;29.74;38.65;99160.38;1721037;83;20464;-67
2021/08/02 15:12:08;;;;;;;;;;;;;;;29.71;39.28;99162.18;1720962;83;23107;-66
2021/08/02 15:14:35;;;;;;;;;;;;;;;29.67;39.90;99173.08;1720808;82;20071;-66
2021/08/02 15:17:05;;;;;;;;;;;;;;;29.64;40.20;99186.13;1720852;83;20111;-69
2021/08/02 15:19:38;;;;;;;;;;;;;;;29.58;40.60;99200.49;1720338;83;20126;-69
2021/08/02 15:22:07;;;;;;;;;;;;;;;29.52;40.84;99211.61;1720006;83;20079;-71
2021/08/02 15:24:39;;;;;;;;;;;;;;;29.46;41.02;99218.70;1701017;84;20877;-66
2021/08/02 15:27:12;;;;;;;;;;;;;;;29.40;41.16;99222.27;1720895;83;20092;-67
2021/08/02 15:29:35;;;;;;;;;;;;;;;29.35;41.37;99233.38;1720452;83;20095;-65
2021/08/02 15:32:04;;;;;;;;;;;;;;;29.30;41.60;99234.05;1720836;83;20082;-67
2021/08/02 15:34:31;;;;;;;;;;;;;;;29.25;42.04;99229.06;1721015;83;20083;-66
2021/08/02 15:36:58;;;;;;;;;;;;;;;29.19;42.46;99231.60;1721254;83;21121;-66
2021/08/02 15:39:25;;;;;;;;;;;;;;;29.11;42.85;99230.59;1720962;83;20165;-66
2021/08/02 15:41:52;;;;;;;;;;;;;;;29.02;43.03;99225.24;1720301;83;20087;-65
2021/08/02 15:44:28;;;;;;;;;;;;;;;28.92;43.15;99234.33;1720892;83;20118;-65
2021/08/02 15:46:55;;;;;;;;;;;;;;;28.81;43.26;99234.55;1720872;83;20119;-66
2021/08/02 15:49:24;;;;;;;;;;;;;;;28.70;43.58;99231.78;1721059;83;21776;-66
2021/08/02 15:51:52;;;;;;;;;;;;;;;28.62;43.82;99234.75;1721148;83;20099;-66
2021/08/02 15:54:22;;;;;;;;;;;;;;;28.55;44.06;99241.51;1720830;83;20389;-67
2021/08/02 15:56:59;;;;;;;;;;;;;;;28.48;44.08;99260.84;1720512;83;20119;-66
2021/08/02 15:59:28;;;;;;;;;;;;;;;28.40;44.23;99269.97;1702514;84;20090;-65
2021/08/02 16:01:55;;;;;;;;;;;;;;;28.31;44.46;99270.48;1702031;84;21132;-65
2021/08/02 16:04:31;;;;;;;;;;;;;;;28.25;44.72;99276.71;1720767;83;20107;-68
